createdAt,value
2023-04-27T00:00:03.701Z,0.00
2023-04-27T00:01:03.718Z,0.00
2023-04-27T00:02:03.766Z,0.00
2023-04-27T00:03:03.900Z,0.00
2023-04-27T00:04:03.933Z,0.00
2023-04-27T00:05:04.070Z,0.00
2023-04-27T00:06:03.935Z,0.00
2023-04-27T00:07:03.845Z,0.00
2023-04-27T00:08:03.864Z,0.00
2023-04-27T00:09:03.883Z,0.00
2023-04-27T00:10:03.905Z,0.00
2023-04-27T00:11:03.966Z,0.00
2023-04-27T00:12:03.939Z,0.00
2023-04-27T00:13:03.969Z,0.00
2023-04-27T00:14:03.986Z,0.00
2023-04-27T00:15:04.003Z,0.00
2023-04-27T00:16:04.125Z,0.00
2023-04-27T00:17:04.044Z,0.00
2023-04-27T00:18:04.075Z,0.00
2023-04-27T00:19:04.092Z,0.00
2023-04-27T00:20:04.106Z,0.00
2023-04-27T00:21:04.133Z,0.00
2023-04-27T00:22:04.148Z,0.00
2023-04-27T00:23:04.164Z,0.00
2023-04-27T00:24:04.190Z,0.00
2023-04-27T00:25:04.205Z,0.00
2023-04-27T00:26:04.228Z,0.00
2023-04-27T00:27:04.377Z,0.00
2023-04-27T00:28:04.274Z,0.00
2023-04-27T00:29:04.293Z,0.00
2023-04-27T00:30:04.310Z,0.00
2023-04-27T00:31:04.325Z,0.00
2023-04-27T00:32:04.518Z,0.00
2023-04-27T00:33:04.395Z,0.00
2023-04-27T00:34:04.387Z,0.00
2023-04-27T00:35:04.404Z,0.00
2023-04-27T00:36:04.436Z,0.00
2023-04-27T00:37:04.447Z,0.00
2023-04-27T00:38:04.466Z,0.00
2023-04-27T00:39:04.491Z,0.00
2023-04-27T00:40:04.498Z,0.00
2023-04-27T00:41:04.525Z,0.00
2023-04-27T00:42:04.546Z,0.00
2023-04-27T00:43:04.561Z,0.00
2023-04-27T00:44:04.589Z,0.00
2023-04-27T00:45:04.602Z,0.00
2023-04-27T00:46:04.692Z,0.00
2023-04-27T00:47:04.643Z,0.00
2023-04-27T00:48:04.754Z,0.00
2023-04-27T00:49:04.732Z,0.00
2023-04-27T00:50:04.716Z,0.00
2023-04-27T00:51:04.732Z,0.00
2023-04-27T00:52:04.738Z,0.00
2023-04-27T00:53:04.756Z,0.00
2023-04-27T00:54:04.781Z,0.00
2023-04-27T00:55:04.798Z,0.00
2023-04-27T00:56:04.816Z,0.00
2023-04-27T00:57:04.839Z,0.00
2023-04-27T00:58:04.859Z,0.00
2023-04-27T00:59:04.915Z,0.00
2023-04-27T01:00:04.906Z,0.00
2023-04-27T01:01:04.958Z,0.00
2023-04-27T01:02:04.958Z,0.00
2023-04-27T01:03:05.172Z,0.00
2023-04-27T01:04:05.088Z,0.00
2023-04-27T01:05:04.995Z,0.00
2023-04-27T01:06:05.018Z,0.00
2023-04-27T01:07:05.031Z,0.00
2023-04-27T01:08:05.062Z,0.00
2023-04-27T01:09:05.075Z,0.00
2023-04-27T01:10:05.098Z,0.00
2023-04-27T01:11:05.116Z,0.00
2023-04-27T01:12:05.132Z,0.00
2023-04-27T01:13:05.163Z,0.00
2023-04-27T01:14:05.174Z,0.00
2023-04-27T01:15:05.186Z,0.00
2023-04-27T01:16:05.211Z,0.00
2023-04-27T01:17:05.246Z,0.00
2023-04-27T01:18:05.304Z,0.00
2023-04-27T01:19:05.280Z,0.00
2023-04-27T01:20:05.298Z,0.00
2023-04-27T01:21:05.306Z,0.00
2023-04-27T01:22:05.328Z,0.00
2023-04-27T01:23:05.347Z,0.00
2023-04-27T01:24:05.366Z,0.00
2023-04-27T01:25:05.383Z,0.00
2023-04-27T01:26:05.401Z,0.00
2023-04-27T01:27:05.423Z,0.00
2023-04-27T01:28:05.448Z,0.00
2023-04-27T01:29:05.461Z,0.00
2023-04-27T01:30:05.479Z,0.00
2023-04-27T01:31:05.526Z,0.00
2023-04-27T01:32:05.522Z,0.00
2023-04-27T01:33:05.558Z,0.00
2023-04-27T01:34:05.558Z,0.00
2023-04-27T01:35:05.575Z,0.00
2023-04-27T01:36:05.597Z,0.00
2023-04-27T01:37:05.618Z,0.00
2023-04-27T01:38:05.654Z,0.00
2023-04-27T01:39:05.650Z,0.00
2023-04-27T01:40:05.682Z,0.00
2023-04-27T01:41:05.694Z,0.00
2023-04-27T01:42:05.718Z,0.00
2023-04-27T01:43:05.734Z,0.00
2023-04-27T01:44:05.754Z,0.00
2023-04-27T01:45:05.772Z,0.00
2023-04-27T01:46:05.824Z,0.00
2023-04-27T01:47:05.813Z,0.00
2023-04-27T01:48:05.877Z,0.00
2023-04-27T01:49:05.854Z,0.00
2023-04-27T01:50:05.890Z,0.00
2023-04-27T01:51:05.887Z,0.00
2023-04-27T01:52:05.906Z,0.00
2023-04-27T01:53:05.926Z,0.00
2023-04-27T01:54:05.946Z,0.00
2023-04-27T01:55:05.967Z,0.00
2023-04-27T01:56:05.984Z,0.00
2023-04-27T01:57:06.006Z,0.00
2023-04-27T01:58:06.037Z,0.00
2023-04-27T01:59:06.039Z,0.00
2023-04-27T02:00:06.078Z,0.00
2023-04-27T02:01:06.084Z,0.00
2023-04-27T02:02:06.191Z,0.00
2023-04-27T02:03:06.244Z,0.00
2023-04-27T02:04:06.285Z,0.00
2023-04-27T02:05:06.158Z,0.00
2023-04-27T02:06:06.184Z,0.00
2023-04-27T02:07:06.188Z,0.00
2023-04-27T02:08:06.220Z,0.00
2023-04-27T02:09:06.232Z,0.00
2023-04-27T02:10:06.248Z,0.00
2023-04-27T02:11:06.269Z,0.00
2023-04-27T02:12:06.293Z,0.00
2023-04-27T02:13:06.305Z,0.00
2023-04-27T02:14:06.332Z,0.00
2023-04-27T02:15:06.353Z,0.00
2023-04-27T02:16:06.483Z,0.00
2023-04-27T02:17:06.378Z,0.00
2023-04-27T02:18:06.453Z,0.00
2023-04-27T02:19:06.417Z,0.00
2023-04-27T02:20:06.434Z,0.00
2023-04-27T02:21:06.491Z,0.00
2023-04-27T02:22:06.472Z,0.00
2023-04-27T02:23:06.491Z,0.00
2023-04-27T02:24:06.519Z,0.00
2023-04-27T02:25:06.531Z,0.00
2023-04-27T02:26:06.556Z,0.00
2023-04-27T02:27:06.567Z,0.00
2023-04-27T02:28:06.582Z,0.00
2023-04-27T02:29:06.604Z,0.00
2023-04-27T02:30:06.634Z,0.00
2023-04-27T02:31:06.664Z,0.00
2023-04-27T02:32:06.660Z,0.00
2023-04-27T02:33:06.716Z,0.00
2023-04-27T02:34:06.692Z,0.00
2023-04-27T02:35:06.713Z,0.00
2023-04-27T02:36:06.759Z,0.00
2023-04-27T02:37:06.766Z,0.00
2023-04-27T02:38:06.827Z,0.00
2023-04-27T02:39:06.787Z,0.00
2023-04-27T02:40:06.806Z,0.00
2023-04-27T02:41:06.955Z,0.00
2023-04-27T02:42:06.844Z,0.00
2023-04-27T02:43:06.874Z,0.00
2023-04-27T02:44:06.884Z,0.00
2023-04-27T02:45:06.898Z,0.00
2023-04-27T02:46:06.915Z,0.00
2023-04-27T02:47:06.998Z,0.00
2023-04-27T02:48:07.004Z,0.00
2023-04-27T02:49:06.971Z,0.00
2023-04-27T02:50:07.015Z,0.00
2023-04-27T02:51:07.068Z,0.00
2023-04-27T02:52:07.030Z,0.00
2023-04-27T02:53:07.045Z,0.00
2023-04-27T02:54:07.059Z,0.00
2023-04-27T02:55:07.080Z,0.00
2023-04-27T02:56:07.095Z,0.00
2023-04-27T02:57:07.115Z,0.00
2023-04-27T02:58:07.139Z,0.00
2023-04-27T02:59:07.149Z,0.00
2023-04-27T03:00:07.173Z,0.00
2023-04-27T03:01:07.213Z,0.00
2023-04-27T03:02:07.222Z,0.00
2023-04-27T03:03:07.371Z,0.00
2023-04-27T03:04:07.475Z,0.00
2023-04-27T03:05:07.264Z,0.00
2023-04-27T03:06:07.286Z,0.00
2023-04-27T03:07:07.310Z,0.00
2023-04-27T03:08:07.315Z,0.00
2023-04-27T03:09:07.336Z,0.00
2023-04-27T03:10:07.390Z,0.00
2023-04-27T03:11:07.371Z,0.00
2023-04-27T03:12:07.387Z,0.00
2023-04-27T03:13:07.405Z,0.00
2023-04-27T03:14:07.424Z,0.00
2023-04-27T03:15:07.447Z,0.00
2023-04-27T03:16:07.529Z,0.00
2023-04-27T03:17:07.479Z,0.00
2023-04-27T03:18:07.523Z,0.00
2023-04-27T03:19:07.519Z,0.00
2023-04-27T03:20:07.532Z,0.00
2023-04-27T03:21:07.556Z,0.00
2023-04-27T03:22:07.584Z,0.00
2023-04-27T03:23:07.602Z,0.00
2023-04-27T03:24:07.605Z,0.00
2023-04-27T03:25:07.627Z,0.00
2023-04-27T03:26:07.655Z,0.00
2023-04-27T03:27:07.662Z,0.00
2023-04-27T03:28:07.675Z,0.00
2023-04-27T03:29:07.696Z,0.00
2023-04-27T03:30:07.713Z,4.00
2023-04-27T03:31:07.729Z,4.00
2023-04-27T03:32:07.798Z,0.00
2023-04-27T03:33:07.829Z,4.00
2023-04-27T03:34:07.782Z,4.00
2023-04-27T03:35:07.821Z,4.00
2023-04-27T03:36:07.820Z,4.00
2023-04-27T03:37:07.839Z,4.00
2023-04-27T03:38:07.861Z,8.00
2023-04-27T03:39:07.873Z,8.00
2023-04-27T03:40:07.899Z,12.00
2023-04-27T03:41:07.912Z,8.00
2023-04-27T03:42:07.930Z,12.00
2023-04-27T03:43:07.946Z,16.00
2023-04-27T03:44:07.967Z,16.00
2023-04-27T03:45:07.984Z,20.00
2023-04-27T03:46:08.054Z,24.00
2023-04-27T03:47:08.013Z,28.00
2023-04-27T03:48:08.050Z,32.00
2023-04-27T03:49:08.053Z,36.00
2023-04-27T03:50:08.080Z,40.00
2023-04-27T03:51:08.085Z,48.00
2023-04-27T03:52:08.106Z,56.00
2023-04-27T03:53:08.125Z,60.00
2023-04-27T03:54:08.144Z,68.00
2023-04-27T03:55:08.173Z,76.00
2023-04-27T03:56:08.175Z,88.00
2023-04-27T03:57:08.200Z,100.00
2023-04-27T03:58:08.226Z,108.00
2023-04-27T03:59:08.226Z,120.00
2023-04-27T04:00:08.288Z,136.00
2023-04-27T04:01:08.290Z,152.00
2023-04-27T04:02:08.329Z,168.00
2023-04-27T04:03:08.644Z,184.00
2023-04-27T04:04:08.508Z,204.00
2023-04-27T04:05:08.364Z,220.00
2023-04-27T04:06:08.353Z,236.00
2023-04-27T04:07:08.374Z,260.00
2023-04-27T04:08:08.388Z,280.00
2023-04-27T04:09:08.404Z,304.00
2023-04-27T04:10:08.426Z,328.00
2023-04-27T04:11:08.461Z,352.00
2023-04-27T04:12:08.461Z,376.00
2023-04-27T04:13:08.482Z,408.00
2023-04-27T04:14:08.498Z,432.00
2023-04-27T04:15:08.506Z,468.00
2023-04-27T04:16:08.726Z,500.00
2023-04-27T04:17:08.543Z,536.00
2023-04-27T04:18:08.597Z,572.00
2023-04-27T04:19:08.599Z,604.00
2023-04-27T04:20:08.605Z,644.00
2023-04-27T04:21:08.617Z,680.00
2023-04-27T04:22:08.635Z,712.00
2023-04-27T04:23:08.650Z,756.00
2023-04-27T04:24:08.673Z,812.00
2023-04-27T04:25:08.713Z,864.00
2023-04-27T04:26:08.713Z,912.00
2023-04-27T04:27:08.721Z,972.00
2023-04-27T04:28:08.746Z,1028.00
2023-04-27T04:29:10.828Z,1076.00
2023-04-27T04:30:08.803Z,1124.00
2023-04-27T04:31:08.889Z,1172.00
2023-04-27T04:32:08.827Z,1220.00
2023-04-27T04:33:08.919Z,1268.00
2023-04-27T04:34:08.861Z,1320.00
2023-04-27T04:35:08.864Z,1368.00
2023-04-27T04:36:08.894Z,1416.00
2023-04-27T04:37:08.901Z,1468.00
2023-04-27T04:38:08.924Z,1520.00
2023-04-27T04:39:08.937Z,1576.00
2023-04-27T04:40:09.159Z,1620.00
2023-04-27T04:41:09.006Z,1672.00
2023-04-27T04:42:08.991Z,1720.00
2023-04-27T04:43:09.007Z,1772.00
2023-04-27T04:44:09.031Z,1816.00
2023-04-27T04:45:09.044Z,1868.00
2023-04-27T04:46:09.127Z,1912.00
2023-04-27T04:47:09.080Z,1960.00
2023-04-27T04:48:09.098Z,2004.00
2023-04-27T04:49:09.117Z,2052.00
2023-04-27T04:50:09.147Z,2096.00
2023-04-27T04:51:09.150Z,2140.00
2023-04-27T04:52:09.202Z,2272.00
2023-04-27T04:53:09.195Z,2640.00
2023-04-27T04:54:09.201Z,3072.00
2023-04-27T04:55:09.223Z,3264.00
2023-04-27T04:56:09.242Z,3144.00
2023-04-27T04:57:09.259Z,3104.00
2023-04-27T04:58:09.282Z,3328.00
2023-04-27T04:59:09.295Z,3568.00
2023-04-27T05:00:09.315Z,3636.00
2023-04-27T05:01:09.364Z,3548.00
2023-04-27T05:02:09.353Z,3344.00
2023-04-27T05:03:09.521Z,3516.00
2023-04-27T05:04:09.640Z,3752.00
2023-04-27T05:05:09.500Z,4316.00
2023-04-27T05:06:09.422Z,4540.00
2023-04-27T05:07:09.449Z,4420.00
2023-04-27T05:08:09.468Z,4560.00
2023-04-27T05:09:09.480Z,4560.00
2023-04-27T05:10:09.556Z,3760.00
2023-04-27T05:11:09.535Z,3776.00
2023-04-27T05:12:09.585Z,4556.00
2023-04-27T05:13:09.562Z,4372.00
2023-04-27T05:14:09.587Z,3628.00
2023-04-27T05:15:09.601Z,4036.00
2023-04-27T05:16:09.641Z,4220.00
2023-04-27T05:17:09.645Z,4320.00
2023-04-27T05:18:09.789Z,4648.00
2023-04-27T05:19:09.680Z,4840.00
2023-04-27T05:20:09.760Z,5148.00
2023-04-27T05:21:09.730Z,4980.00
2023-04-27T05:22:09.737Z,4952.00
2023-04-27T05:23:09.764Z,5480.00
2023-04-27T05:24:09.781Z,5660.00
2023-04-27T05:25:09.797Z,5656.00
2023-04-27T05:26:09.816Z,5884.00
2023-04-27T05:27:09.845Z,5032.00
2023-04-27T05:28:09.884Z,4028.00
2023-04-27T05:29:09.893Z,3984.00
2023-04-27T05:30:09.933Z,4284.00
2023-04-27T05:31:09.961Z,3788.00
2023-04-27T05:32:10.041Z,3592.00
2023-04-27T05:33:09.993Z,4368.00
2023-04-27T05:34:10.002Z,4884.00
2023-04-27T05:35:10.004Z,4948.00
2023-04-27T05:36:10.040Z,5160.00
2023-04-27T05:37:10.079Z,7020.00
2023-04-27T05:38:10.086Z,8664.00
2023-04-27T05:39:10.089Z,8896.00
2023-04-27T05:40:10.112Z,8116.00
2023-04-27T05:41:10.140Z,6736.00
2023-04-27T05:42:10.185Z,5884.00
2023-04-27T05:43:10.179Z,4988.00
2023-04-27T05:44:10.207Z,4500.00
2023-04-27T05:45:10.219Z,4648.00
2023-04-27T05:46:10.309Z,4316.00
2023-04-27T05:47:10.262Z,4580.00
2023-04-27T05:48:10.280Z,4852.00
2023-04-27T05:49:10.304Z,4304.00
2023-04-27T05:50:10.328Z,4280.00
2023-04-27T05:51:13.093Z,4432.00
2023-04-27T05:52:10.373Z,4704.00
2023-04-27T05:53:10.501Z,4712.00
2023-04-27T05:54:10.411Z,4660.00
2023-04-27T05:55:10.431Z,4588.00
2023-04-27T05:56:10.455Z,4264.00
2023-04-27T05:57:10.480Z,4160.00
2023-04-27T05:58:10.500Z,4168.00
2023-04-27T05:59:10.533Z,4392.00
2023-04-27T06:00:10.540Z,6256.00
2023-04-27T06:01:10.574Z,7864.00
2023-04-27T06:02:10.604Z,7972.00
2023-04-27T06:03:10.659Z,8860.00
2023-04-27T06:04:10.687Z,11184.00
2023-04-27T06:05:10.702Z,12412.00
2023-04-27T06:06:10.676Z,13788.00
2023-04-27T06:07:10.690Z,14808.00
2023-04-27T06:08:10.713Z,16576.00
2023-04-27T06:09:10.755Z,18592.00
2023-04-27T06:10:10.761Z,19904.00
2023-04-27T06:11:10.786Z,20544.00
2023-04-27T06:12:10.809Z,20928.00
2023-04-27T06:13:10.838Z,22016.00
2023-04-27T06:14:10.848Z,22432.00
2023-04-27T06:15:10.865Z,23232.00
2023-04-27T06:16:10.904Z,25248.00
2023-04-27T06:17:10.911Z,26208.00
2023-04-27T06:18:10.957Z,26112.00
2023-04-27T06:19:11.030Z,24960.00
2023-04-27T06:20:10.992Z,24576.00
2023-04-27T06:21:11.014Z,25536.00
2023-04-27T06:22:11.027Z,25312.00
2023-04-27T06:23:11.051Z,24704.00
2023-04-27T06:24:11.085Z,24992.00
2023-04-27T06:25:11.104Z,24800.00
2023-04-27T06:26:11.471Z,25504.00
2023-04-27T06:27:11.146Z,26976.00
2023-04-27T06:28:11.176Z,27328.00
2023-04-27T06:29:11.349Z,26432.00
2023-04-27T06:30:11.225Z,26336.00
2023-04-27T06:31:11.250Z,26656.00
2023-04-27T06:32:11.314Z,27424.00
2023-04-27T06:33:11.346Z,27200.00
2023-04-27T06:34:11.327Z,27488.00
2023-04-27T06:35:11.359Z,27584.00
2023-04-27T06:36:11.571Z,27744.00
2023-04-27T06:37:11.409Z,27872.00
2023-04-27T06:38:11.426Z,28064.00
2023-04-27T06:39:11.594Z,28448.00
2023-04-27T06:40:11.480Z,28288.00
2023-04-27T06:41:11.569Z,28800.00
2023-04-27T06:42:11.528Z,29760.00
2023-04-27T06:43:11.554Z,29920.00
2023-04-27T06:44:11.580Z,30016.00
2023-04-27T06:45:11.606Z,30720.00
2023-04-27T06:46:11.654Z,30176.00
2023-04-27T06:47:11.658Z,29824.00
2023-04-27T06:48:11.711Z,30432.00
2023-04-27T06:49:11.918Z,31840.00
2023-04-27T06:50:11.738Z,32000.00
2023-04-27T06:51:11.789Z,32256.00
2023-04-27T06:52:11.795Z,33280.00
2023-04-27T06:53:11.827Z,34688.00
2023-04-27T06:54:11.855Z,35104.00
2023-04-27T06:55:11.878Z,35200.00
2023-04-27T06:56:11.894Z,33856.00
2023-04-27T06:57:11.935Z,34144.00
2023-04-27T06:58:11.954Z,33728.00
2023-04-27T06:59:12.108Z,22784.00
2023-04-27T07:00:12.012Z,8420.00
2023-04-27T07:01:12.084Z,5012.00
2023-04-27T07:02:12.059Z,4580.00
2023-04-27T07:03:12.175Z,4488.00
2023-04-27T07:04:12.250Z,4480.00
2023-04-27T07:05:12.158Z,4476.00
2023-04-27T07:06:12.171Z,4472.00
2023-04-27T07:07:12.190Z,4464.00
2023-04-27T07:08:12.225Z,4452.00
2023-04-27T07:09:26.202Z,4444.00
2023-04-27T07:10:12.282Z,4436.00
2023-04-27T07:11:12.382Z,4420.00
2023-04-27T07:12:12.333Z,4416.00
2023-04-27T07:13:12.625Z,4396.00
2023-04-27T07:14:12.374Z,4388.00
2023-04-27T07:15:12.447Z,4392.00
2023-04-27T07:16:12.491Z,4392.00
2023-04-27T07:17:12.462Z,4384.00
2023-04-27T07:18:12.475Z,4380.00
2023-04-27T07:19:12.904Z,4368.00
2023-04-27T07:20:12.526Z,4372.00
2023-04-27T07:21:12.566Z,4360.00
2023-04-27T07:22:12.597Z,4356.00
2023-04-27T07:23:12.613Z,4340.00
2023-04-27T07:24:12.613Z,4332.00
2023-04-27T07:25:12.636Z,4332.00
2023-04-27T07:26:12.664Z,4340.00
2023-04-27T07:27:12.678Z,4352.00
2023-04-27T07:28:12.713Z,4356.00
2023-04-27T07:29:25.497Z,4356.00
2023-04-27T07:30:12.743Z,4360.00
2023-04-27T07:31:12.893Z,4360.00
2023-04-27T07:32:12.923Z,4348.00
2023-04-27T07:33:12.815Z,4332.00
2023-04-27T07:34:12.859Z,4320.00
2023-04-27T07:35:12.857Z,4304.00
2023-04-27T07:36:12.891Z,4300.00
2023-04-27T07:37:12.902Z,4288.00
2023-04-27T07:38:12.924Z,4280.00
2023-04-27T07:39:13.200Z,4276.00
2023-04-27T07:40:12.968Z,4280.00
2023-04-27T07:41:13.004Z,4288.00
2023-04-27T07:42:13.012Z,4300.00
2023-04-27T07:43:13.037Z,4300.00
2023-04-27T07:44:13.060Z,4304.00
2023-04-27T07:45:13.081Z,4308.00
2023-04-27T07:46:13.192Z,4308.00
2023-04-27T07:47:13.120Z,4328.00
2023-04-27T07:48:13.208Z,4320.00
2023-04-27T07:49:13.312Z,4312.00
2023-04-27T07:50:13.190Z,4296.00
2023-04-27T07:51:13.214Z,4288.00
2023-04-27T07:52:13.231Z,4276.00
2023-04-27T07:53:13.294Z,4284.00
2023-04-27T07:54:13.288Z,4284.00
2023-04-27T07:55:13.295Z,4284.00
2023-04-27T07:56:13.320Z,4280.00
2023-04-27T07:57:13.344Z,4272.00
2023-04-27T07:58:13.364Z,4288.00
2023-04-27T07:59:13.567Z,4296.00
2023-04-27T08:00:13.409Z,4304.00
2023-04-27T08:01:13.434Z,4300.00
2023-04-27T08:02:19.792Z,4304.00
2023-04-27T08:03:13.806Z,4300.00
2023-04-27T08:04:13.769Z,4304.00
2023-04-27T08:05:13.927Z,4300.00
2023-04-27T08:06:13.970Z,4292.00
2023-04-27T08:07:14.124Z,4280.00
2023-04-27T08:08:13.787Z,4280.00
2023-04-27T08:09:13.978Z,4268.00
2023-04-27T08:10:13.648Z,4280.00
2023-04-27T08:11:13.655Z,4288.00
2023-04-27T08:12:13.687Z,4292.00
2023-04-27T08:13:13.709Z,4316.00
2023-04-27T08:14:13.770Z,4344.00
2023-04-27T08:15:13.744Z,4368.00
2023-04-27T08:16:13.798Z,4380.00
2023-04-27T08:17:13.854Z,4456.00
2023-04-27T08:18:13.847Z,4344.00
2023-04-27T08:19:14.059Z,4316.00
2023-04-27T08:20:13.873Z,4352.00
2023-04-27T08:21:13.879Z,4320.00
2023-04-27T08:22:13.908Z,4340.00
2023-04-27T08:23:13.921Z,4408.00
2023-04-27T08:24:13.944Z,4388.00
2023-04-27T08:25:13.968Z,4404.00
2023-04-27T08:26:13.994Z,4420.00
2023-04-27T08:27:14.020Z,4352.00
2023-04-27T08:28:14.034Z,4348.00
2023-04-27T08:29:26.372Z,4364.00
2023-04-27T08:30:14.081Z,4380.00
2023-04-27T08:31:14.168Z,4404.00
2023-04-27T08:32:14.125Z,4364.00
2023-04-27T08:33:14.184Z,4340.00
2023-04-27T08:34:14.172Z,4316.00
2023-04-27T08:35:14.203Z,4308.00
2023-04-27T08:36:14.216Z,4292.00
2023-04-27T08:37:14.241Z,4264.00
2023-04-27T08:38:14.260Z,4240.00
2023-04-27T08:39:14.546Z,4212.00
2023-04-27T08:40:14.326Z,4192.00
2023-04-27T08:41:20.895Z,4172.00
2023-04-27T08:42:14.348Z,4148.00
2023-04-27T08:43:14.373Z,4128.00
2023-04-27T08:44:14.402Z,4124.00
2023-04-27T08:45:14.428Z,4132.00
2023-04-27T08:46:14.497Z,4152.00
2023-04-27T08:47:14.463Z,4176.00
2023-04-27T08:48:14.524Z,4200.00
2023-04-27T08:49:16.738Z,4208.00
2023-04-27T08:50:14.529Z,4172.00
2023-04-27T08:51:14.554Z,4288.00
2023-04-27T08:52:14.575Z,4412.00
2023-04-27T08:53:14.598Z,4376.00
2023-04-27T08:54:14.622Z,4364.00
2023-04-27T08:55:16.510Z,4352.00
2023-04-27T08:56:14.674Z,4368.00
2023-04-27T08:57:14.693Z,4424.00
2023-04-27T08:58:14.717Z,4440.00
2023-04-27T08:59:15.382Z,4488.00
2023-04-27T09:00:14.760Z,4568.00
2023-04-27T09:01:14.782Z,4668.00
2023-04-27T09:02:14.858Z,4744.00
2023-04-27T09:03:14.946Z,4740.00
2023-04-27T09:04:14.969Z,4728.00
2023-04-27T09:05:14.914Z,4660.00
2023-04-27T09:06:15.114Z,4568.00
2023-04-27T09:07:14.921Z,4664.00
2023-04-27T09:08:14.941Z,4828.00
2023-04-27T09:09:15.161Z,4824.00
2023-04-27T09:10:14.988Z,4756.00
2023-04-27T09:11:15.002Z,4804.00
2023-04-27T09:12:15.033Z,4788.00
2023-04-27T09:13:15.054Z,4788.00
2023-04-27T09:14:15.088Z,4740.00
2023-04-27T09:15:15.097Z,4632.00
2023-04-27T09:16:15.276Z,4524.00
2023-04-27T09:17:15.146Z,4660.00
2023-04-27T09:18:15.197Z,4852.00
2023-04-27T09:19:15.359Z,4920.00
2023-04-27T09:20:15.220Z,4888.00
2023-04-27T09:21:15.357Z,4860.00
2023-04-27T09:22:15.263Z,4936.00
2023-04-27T09:23:15.282Z,5048.00
2023-04-27T09:24:15.305Z,5260.00
2023-04-27T09:25:15.329Z,5400.00
2023-04-27T09:26:15.350Z,5440.00
2023-04-27T09:27:15.374Z,5476.00
2023-04-27T09:28:15.421Z,5584.00
2023-04-27T09:29:15.626Z,5660.00
2023-04-27T09:30:15.443Z,5552.00
2023-04-27T09:31:15.507Z,5512.00
2023-04-27T09:32:16.788Z,5564.00
2023-04-27T09:33:15.513Z,5580.00
2023-04-27T09:34:15.536Z,5564.00
2023-04-27T09:35:15.560Z,5492.00
2023-04-27T09:36:15.584Z,5460.00
2023-04-27T09:37:15.635Z,5620.00
2023-04-27T09:38:17.073Z,6092.00
2023-04-27T09:39:15.650Z,6424.00
2023-04-27T09:40:15.677Z,6672.00
2023-04-27T09:41:15.701Z,6988.00
2023-04-27T09:42:15.728Z,7228.00
2023-04-27T09:43:15.754Z,7308.00
2023-04-27T09:44:15.772Z,7424.00
2023-04-27T09:45:15.797Z,7752.00
2023-04-27T09:46:15.851Z,8264.00
2023-04-27T09:47:15.841Z,8744.00
2023-04-27T09:48:15.869Z,9100.00
2023-04-27T09:49:15.941Z,9468.00
2023-04-27T09:50:15.915Z,9444.00
2023-04-27T09:51:15.940Z,9328.00
2023-04-27T09:52:15.962Z,9572.00
2023-04-27T09:53:16.002Z,9336.00
2023-04-27T09:54:16.021Z,8744.00
2023-04-27T09:55:16.043Z,8636.00
2023-04-27T09:56:16.066Z,8576.00
2023-04-27T09:57:16.085Z,8624.00
2023-04-27T09:58:16.111Z,8744.00
2023-04-27T09:59:16.130Z,8580.00
2023-04-27T10:00:16.161Z,7980.00
2023-04-27T10:01:16.187Z,7640.00
2023-04-27T10:02:24.665Z,7288.00
2023-04-27T10:03:16.281Z,7344.00
2023-04-27T10:04:16.352Z,7352.00
2023-04-27T10:05:16.337Z,7092.00
2023-04-27T10:06:16.304Z,6972.00
2023-04-27T10:07:16.331Z,6460.00
2023-04-27T10:08:16.360Z,6344.00
2023-04-27T10:09:16.505Z,6352.00
2023-04-27T10:10:16.406Z,6612.00
2023-04-27T10:11:16.430Z,6876.00
2023-04-27T10:12:16.453Z,7024.00
2023-04-27T10:13:16.473Z,7192.00
2023-04-27T10:14:16.502Z,7244.00
2023-04-27T10:15:16.538Z,7476.00
2023-04-27T10:16:16.616Z,7484.00
2023-04-27T10:17:16.570Z,7368.00
2023-04-27T10:18:16.770Z,7344.00
2023-04-27T10:19:16.796Z,7480.00
2023-04-27T10:20:16.727Z,7564.00
2023-04-27T10:21:16.667Z,7516.00
2023-04-27T10:22:17.171Z,7116.00
2023-04-27T10:23:16.716Z,6244.00
2023-04-27T10:24:16.777Z,5696.00
2023-04-27T10:25:16.771Z,5684.00
2023-04-27T10:26:16.793Z,5928.00
2023-04-27T10:27:16.820Z,6200.00
2023-04-27T10:28:16.850Z,6276.00
2023-04-27T10:29:16.865Z,6552.00
2023-04-27T10:30:16.932Z,6724.00
2023-04-27T10:31:16.979Z,6876.00
2023-04-27T10:32:16.951Z,6912.00
2023-04-27T10:33:17.000Z,6640.00
2023-04-27T10:34:19.049Z,6752.00
2023-04-27T10:35:17.057Z,6632.00
2023-04-27T10:36:17.061Z,6352.00
2023-04-27T10:37:17.074Z,6356.00
2023-04-27T10:38:17.109Z,6368.00
2023-04-27T10:39:17.160Z,6488.00
2023-04-27T10:40:17.269Z,6316.00
2023-04-27T10:41:17.175Z,6008.00
2023-04-27T10:42:17.200Z,5420.00
2023-04-27T10:43:17.217Z,5188.00
2023-04-27T10:44:17.248Z,5004.00
2023-04-27T10:45:17.257Z,4868.00
2023-04-27T10:46:17.289Z,4836.00
2023-04-27T10:47:17.298Z,4836.00
2023-04-27T10:48:17.328Z,4740.00
2023-04-27T10:49:17.346Z,4708.00
2023-04-27T10:50:17.420Z,4696.00
2023-04-27T10:51:17.463Z,4628.00
2023-04-27T10:52:17.416Z,4532.00
2023-04-27T10:53:17.455Z,4520.00
2023-04-27T10:54:17.466Z,4572.00
2023-04-27T10:55:17.490Z,4628.00
2023-04-27T10:56:17.511Z,4692.00
2023-04-27T10:57:17.555Z,4688.00
2023-04-27T10:58:17.570Z,4612.00
2023-04-27T10:59:17.584Z,4560.00
2023-04-27T11:00:17.672Z,4536.00
2023-04-27T11:01:17.692Z,4596.00
2023-04-27T11:02:17.697Z,4720.00
2023-04-27T11:03:17.804Z,4924.00
2023-04-27T11:04:17.898Z,5152.00
2023-04-27T11:05:17.733Z,5316.00
2023-04-27T11:06:17.783Z,5408.00
2023-04-27T11:07:17.788Z,5640.00
2023-04-27T11:08:17.827Z,5964.00
2023-04-27T11:09:17.818Z,6128.00
2023-04-27T11:10:17.841Z,6180.00
2023-04-27T11:11:17.865Z,6516.00
2023-04-27T11:12:17.887Z,6600.00
2023-04-27T11:13:17.962Z,6440.00
2023-04-27T11:14:17.938Z,6404.00
2023-04-27T11:15:17.960Z,6148.00
2023-04-27T11:16:18.106Z,6104.00
2023-04-27T11:17:18.006Z,5844.00
2023-04-27T11:18:18.031Z,5456.00
2023-04-27T11:19:18.057Z,5156.00
2023-04-27T11:20:18.078Z,5180.00
2023-04-27T11:21:18.100Z,5132.00
2023-04-27T11:22:18.130Z,4932.00
2023-04-27T11:23:18.151Z,4648.00
2023-04-27T11:24:18.183Z,4580.00
2023-04-27T11:25:18.197Z,4572.00
2023-04-27T11:26:18.228Z,4516.00
2023-04-27T11:27:18.264Z,4228.00
2023-04-27T11:28:18.273Z,4088.00
2023-04-27T11:29:18.352Z,4048.00
2023-04-27T11:30:18.327Z,4060.00
2023-04-27T11:31:18.405Z,4056.00
2023-04-27T11:32:18.364Z,4124.00
2023-04-27T11:33:18.387Z,4376.00
2023-04-27T11:34:19.363Z,4700.00
2023-04-27T11:35:18.531Z,4956.00
2023-04-27T11:36:18.465Z,5024.00
2023-04-27T11:37:18.886Z,4940.00
2023-04-27T11:38:18.508Z,4876.00
2023-04-27T11:39:18.619Z,4772.00
2023-04-27T11:40:18.560Z,4704.00
2023-04-27T11:41:18.579Z,4872.00
2023-04-27T11:42:18.620Z,5044.00
2023-04-27T11:43:18.625Z,5124.00
2023-04-27T11:44:18.646Z,5184.00
2023-04-27T11:45:18.670Z,5276.00
2023-04-27T11:46:18.707Z,5408.00
2023-04-27T11:47:19.075Z,5504.00
2023-04-27T11:48:18.739Z,5488.00
2023-04-27T11:49:18.775Z,5544.00
2023-04-27T11:50:18.787Z,5648.00
2023-04-27T11:51:18.812Z,5764.00
2023-04-27T11:52:18.841Z,5796.00
2023-04-27T11:53:19.152Z,5812.00
2023-04-27T11:54:18.896Z,5704.00
2023-04-27T11:55:18.905Z,5768.00
2023-04-27T11:56:18.933Z,5912.00
2023-04-27T11:57:18.960Z,5876.00
2023-04-27T11:58:18.993Z,5588.00
2023-04-27T11:59:19.002Z,5356.00
2023-04-27T12:00:19.022Z,5308.00
2023-04-27T12:01:27.733Z,5288.00
2023-04-27T12:02:19.153Z,5256.00
2023-04-27T12:03:19.242Z,5228.00
2023-04-27T12:04:19.439Z,5232.00
2023-04-27T12:05:19.229Z,5240.00
2023-04-27T12:06:32.300Z,5256.00
2023-04-27T12:07:19.207Z,5364.00
2023-04-27T12:08:19.224Z,5480.00
2023-04-27T12:09:19.242Z,5788.00
2023-04-27T12:10:19.288Z,6116.00
2023-04-27T12:11:19.298Z,6224.00
2023-04-27T12:12:19.329Z,6348.00
2023-04-27T12:13:19.348Z,6576.00
2023-04-27T12:14:19.367Z,6696.00
2023-04-27T12:15:19.391Z,6796.00
2023-04-27T12:16:19.432Z,6960.00
2023-04-27T12:17:19.445Z,7252.00
2023-04-27T12:18:19.465Z,7280.00
2023-04-27T12:19:19.493Z,7196.00
2023-04-27T12:20:19.514Z,6984.00
2023-04-27T12:21:19.543Z,6816.00
2023-04-27T12:22:19.564Z,6824.00
2023-04-27T12:23:19.597Z,6808.00
2023-04-27T12:24:19.613Z,6968.00
2023-04-27T12:25:19.658Z,6988.00
2023-04-27T12:26:19.665Z,6988.00